sensor_id;sensor_type;location;lat;lon;timestamp;temperature;humidity
18126;DHT22;53956;52.442;13.284;2022-12-29T00:01:23;10.10;99.90
18126;DHT22;53956;52.442;13.284;2022-12-29T00:03:50;10.00;99.90
18126;DHT22;53956;52.442;13.284;2022-12-29T00:06:18;10.10;99.90
18126;DHT22;53956;52.442;13.284;2022-12-29T00:08:44;10.20;99.90
18126;DHT22;53956;52.442;13.284;2022-12-29T00:11:13;10.10;99.90
18126;DHT22;53956;52.442;13.284;2022-12-29T00:13:40;10.10;99.90
18126;DHT22;53956;52.442;13.284;2022-12-29T00:16:26;10.10;99.90
18126;DHT22;53956;52.442;13.284;2022-12-29T00:18:53;10.20;99.90
18126;DHT22;53956;52.442;13.284;2022-12-29T00:21:22;10.10;99.90
18126;DHT22;53956;52.442;13.284;2022-12-29T00:24:14;10.10;99.90
18126;DHT22;53956;52.442;13.284;2022-12-29T00:27:10;10.10;99.90
18126;DHT22;53956;52.442;13.284;2022-12-29T00:29:55;10.10;99.90
18126;DHT22;53956;52.442;13.284;2022-12-29T00:32:39;10.20;99.90
18126;DHT22;53956;52.442;13.284;2022-12-29T00:35:30;10.30;99.90
18126;DHT22;53956;52.442;13.284;2022-12-29T00:38:03;10.20;99.90
18126;DHT22;53956;52.442;13.284;2022-12-29T00:40:48;10.10;99.90
18126;DHT22;53956;52.442;13.284;2022-12-29T00:43:32;10.10;99.90
18126;DHT22;53956;52.442;13.284;2022-12-29T00:46:17;10.20;99.90
18126;DHT22;53956;52.442;13.284;2022-12-29T00:48:43;10.20;99.90
18126;DHT22;53956;52.442;13.284;2022-12-29T00:51:27;10.10;99.90
18126;DHT22;53956;52.442;13.284;2022-12-29T00:53:55;10.10;99.90
18126;DHT22;53956;52.442;13.284;2022-12-29T00:56:22;10.20;99.90
18126;DHT22;53956;52.442;13.284;2022-12-29T00:58:49;10.30;99.90
18126;DHT22;53956;52.442;13.284;2022-12-29T01:01:16;10.20;99.90
18126;DHT22;53956;52.442;13.284;2022-12-29T01:03:42;10.20;99.90
18126;DHT22;53956;52.442;13.284;2022-12-29T01:06:11;10.20;99.90
18126;DHT22;53956;52.442;13.284;2022-12-29T01:08:38;10.20;99.90
18126;DHT22;53956;52.442;13.284;2022-12-29T01:11:07;10.10;99.90
18126;DHT22;53956;52.442;13.284;2022-12-29T01:13:33;10.20;99.90
18126;DHT22;53956;52.442;13.284;2022-12-29T01:16:00;10.20;99.90
18126;DHT22;53956;52.442;13.284;2022-12-29T01:18:27;10.20;99.90
18126;DHT22;53956;52.442;13.284;2022-12-29T01:20:58;10.20;99.90
18126;DHT22;53956;52.442;13.284;2022-12-29T01:23:25;10.10;99.90
18126;DHT22;53956;52.442;13.284;2022-12-29T01:25:51;10.20;99.90
18126;DHT22;53956;52.442;13.284;2022-12-29T01:28:19;10.20;99.90
18126;DHT22;53956;52.442;13.284;2022-12-29T01:30:46;10.30;99.90
18126;DHT22;53956;52.442;13.284;2022-12-29T01:33:13;10.30;99.90
18126;DHT22;53956;52.442;13.284;2022-12-29T01:35:39;10.20;99.90
18126;DHT22;53956;52.442;13.284;2022-12-29T01:38:06;10.30;99.90
18126;DHT22;53956;52.442;13.284;2022-12-29T01:40:34;10.30;99.90
18126;DHT22;53956;52.442;13.284;2022-12-29T01:43:00;10.20;99.90
18126;DHT22;53956;52.442;13.284;2022-12-29T01:45:28;10.20;99.90
18126;DHT22;53956;52.442;13.284;2022-12-29T01:47:57;10.20;99.90
18126;DHT22;53956;52.442;13.284;2022-12-29T01:50:29;10.30;99.90
18126;DHT22;53956;52.442;13.284;2022-12-29T01:52:59;10.20;99.90
18126;DHT22;53956;52.442;13.284;2022-12-29T01:55:29;10.30;99.90
18126;DHT22;53956;52.442;13.284;2022-12-29T01:58:00;10.30;99.90
18126;DHT22;53956;52.442;13.284;2022-12-29T02:00:31;10.20;99.90
18126;DHT22;53956;52.442;13.284;2022-12-29T02:02:58;10.30;99.90
18126;DHT22;53956;52.442;13.284;2022-12-29T02:05:28;10.20;99.90
18126;DHT22;53956;52.442;13.284;2022-12-29T02:07:56;10.30;99.90
18126;DHT22;53956;52.442;13.284;2022-12-29T02:10:25;10.30;99.90
18126;DHT22;53956;52.442;13.284;2022-12-29T02:12:53;10.30;99.90
18126;DHT22;53956;52.442;13.284;2022-12-29T02:15:24;10.40;99.90
18126;DHT22;53956;52.442;13.284;2022-12-29T02:18:10;10.30;99.90
18126;DHT22;53956;52.442;13.284;2022-12-29T02:21:02;10.20;99.90
18126;DHT22;53956;52.442;13.284;2022-12-29T02:23:59;10.30;99.90
18126;DHT22;53956;52.442;13.284;2022-12-29T02:26:58;10.30;99.90
18126;DHT22;53956;52.442;13.284;2022-12-29T02:29:59;10.40;99.90
18126;DHT22;53956;52.442;13.284;2022-12-29T02:32:36;10.40;99.90
18126;DHT22;53956;52.442;13.284;2022-12-29T02:35:10;10.40;99.90
18126;DHT22;53956;52.442;13.284;2022-12-29T02:37:43;10.40;99.90
18126;DHT22;53956;52.442;13.284;2022-12-29T02:40:19;10.30;99.90
18126;DHT22;53956;52.442;13.284;2022-12-29T02:42:50;10.50;99.90
18126;DHT22;53956;52.442;13.284;2022-12-29T02:45:21;10.50;99.90
18126;DHT22;53956;52.442;13.284;2022-12-29T02:47:56;10.50;99.90
18126;DHT22;53956;52.442;13.284;2022-12-29T02:50:26;10.50;99.90
18126;DHT22;53956;52.442;13.284;2022-12-29T02:52:59;10.50;99.90
18126;DHT22;53956;52.442;13.284;2022-12-29T02:55:26;10.50;99.90
18126;DHT22;53956;52.442;13.284;2022-12-29T02:58:13;10.60;99.90
18126;DHT22;53956;52.442;13.284;2022-12-29T03:00:55;10.60;99.90
18126;DHT22;53956;52.442;13.284;2022-12-29T03:03:39;10.60;99.90
18126;DHT22;53956;52.442;13.284;2022-12-29T03:06:18;10.60;99.90
18126;DHT22;53956;52.442;13.284;2022-12-29T03:08:54;10.60;99.90
18126;DHT22;53956;52.442;13.284;2022-12-29T03:11:23;10.70;99.90
18126;DHT22;53956;52.442;13.284;2022-12-29T03:14:18;10.70;99.90
18126;DHT22;53956;52.442;13.284;2022-12-29T03:17:12;10.80;99.90
18126;DHT22;53956;52.442;13.284;2022-12-29T03:19:47;10.70;99.90
18126;DHT22;53956;52.442;13.284;2022-12-29T03:22:17;10.80;99.90
18126;DHT22;53956;52.442;13.284;2022-12-29T03:25:03;10.70;99.90
18126;DHT22;53956;52.442;13.284;2022-12-29T03:27:34;10.70;99.90
18126;DHT22;53956;52.442;13.284;2022-12-29T03:30:03;10.80;99.90
18126;DHT22;53956;52.442;13.284;2022-12-29T03:32:33;10.70;99.90
18126;DHT22;53956;52.442;13.284;2022-12-29T03:35:03;10.70;99.90
18126;DHT22;53956;52.442;13.284;2022-12-29T03:37:40;10.80;99.90
18126;DHT22;53956;52.442;13.284;2022-12-29T03:40:08;10.80;99.90
18126;DHT22;53956;52.442;13.284;2022-12-29T03:42:37;10.80;99.90
18126;DHT22;53956;52.442;13.284;2022-12-29T03:45:07;10.80;99.90
18126;DHT22;53956;52.442;13.284;2022-12-29T03:47:36;10.80;99.90
18126;DHT22;53956;52.442;13.284;2022-12-29T03:50:06;10.80;99.90
18126;DHT22;53956;52.442;13.284;2022-12-29T03:52:37;10.80;99.90
18126;DHT22;53956;52.442;13.284;2022-12-29T03:55:04;10.90;99.90
18126;DHT22;53956;52.442;13.284;2022-12-29T03:57:31;11.00;99.90
18126;DHT22;53956;52.442;13.284;2022-12-29T04:00:07;10.90;99.90
18126;DHT22;53956;52.442;13.284;2022-12-29T04:02:42;10.90;99.90
18126;DHT22;53956;52.442;13.284;2022-12-29T04:05:16;10.80;99.90
18126;DHT22;53956;52.442;13.284;2022-12-29T04:07:43;10.90;99.90
18126;DHT22;53956;52.442;13.284;2022-12-29T04:10:10;11.00;99.90
18126;DHT22;53956;52.442;13.284;2022-12-29T04:12:37;10.90;99.90
18126;DHT22;53956;52.442;13.284;2022-12-29T04:15:04;10.90;99.90
18126;DHT22;53956;52.442;13.284;2022-12-29T04:17:32;10.90;99.90
18126;DHT22;53956;52.442;13.284;2022-12-29T04:19:59;11.00;99.90
18126;DHT22;53956;52.442;13.284;2022-12-29T04:22:41;11.00;99.90
18126;DHT22;53956;52.442;13.284;2022-12-29T04:25:08;11.00;99.90
18126;DHT22;53956;52.442;13.284;2022-12-29T04:27:37;11.00;99.90
18126;DHT22;53956;52.442;13.284;2022-12-29T04:30:19;11.00;99.90
18126;DHT22;53956;52.442;13.284;2022-12-29T04:32:56;11.00;99.90
18126;DHT22;53956;52.442;13.284;2022-12-29T04:35:22;10.90;99.90
18126;DHT22;53956;52.442;13.284;2022-12-29T04:37:51;11.10;99.90
18126;DHT22;53956;52.442;13.284;2022-12-29T04:40:18;11.10;99.90
18126;DHT22;53956;52.442;13.284;2022-12-29T04:42:45;11.10;99.90
18126;DHT22;53956;52.442;13.284;2022-12-29T04:45:11;11.20;99.90
18126;DHT22;53956;52.442;13.284;2022-12-29T04:47:56;11.10;99.90
18126;DHT22;53956;52.442;13.284;2022-12-29T04:50:48;11.00;99.90
18126;DHT22;53956;52.442;13.284;2022-12-29T04:53:18;11.00;99.90
18126;DHT22;53956;52.442;13.284;2022-12-29T04:55:48;11.00;99.90
18126;DHT22;53956;52.442;13.284;2022-12-29T04:58:16;11.00;99.90
18126;DHT22;53956;52.442;13.284;2022-12-29T05:00:42;11.10;99.90
18126;DHT22;53956;52.442;13.284;2022-12-29T05:03:10;11.00;99.90
18126;DHT22;53956;52.442;13.284;2022-12-29T05:05:39;11.20;99.90
18126;DHT22;53956;52.442;13.284;2022-12-29T05:08:07;11.10;99.90
18126;DHT22;53956;52.442;13.284;2022-12-29T05:10:35;11.10;99.90
18126;DHT22;53956;52.442;13.284;2022-12-29T05:13:07;11.10;99.90
18126;DHT22;53956;52.442;13.284;2022-12-29T05:15:34;11.10;99.90
18126;DHT22;53956;52.442;13.284;2022-12-29T05:18:00;11.20;99.90
18126;DHT22;53956;52.442;13.284;2022-12-29T05:20:28;11.20;99.90
18126;DHT22;53956;52.442;13.284;2022-12-29T05:22:56;11.20;99.90
18126;DHT22;53956;52.442;13.284;2022-12-29T05:25:23;11.20;99.90
18126;DHT22;53956;52.442;13.284;2022-12-29T05:28:03;11.20;99.90
18126;DHT22;53956;52.442;13.284;2022-12-29T05:30:43;11.20;99.90
18126;DHT22;53956;52.442;13.284;2022-12-29T05:33:10;11.30;99.90
18126;DHT22;53956;52.442;13.284;2022-12-29T05:35:38;11.20;99.90
18126;DHT22;53956;52.442;13.284;2022-12-29T05:38:05;11.30;99.90
18126;DHT22;53956;52.442;13.284;2022-12-29T05:40:32;11.30;99.90
18126;DHT22;53956;52.442;13.284;2022-12-29T05:43:04;11.40;99.90
18126;DHT22;53956;52.442;13.284;2022-12-29T05:45:39;11.30;99.90
18126;DHT22;53956;52.442;13.284;2022-12-29T05:48:27;11.50;99.90
18126;DHT22;53956;52.442;13.284;2022-12-29T05:51:17;11.50;99.90
18126;DHT22;53956;52.442;13.284;2022-12-29T05:53:49;11.40;99.90
18126;DHT22;53956;52.442;13.284;2022-12-29T05:56:16;11.60;99.90
18126;DHT22;53956;52.442;13.284;2022-12-29T05:58:45;11.40;99.90
18126;DHT22;53956;52.442;13.284;2022-12-29T06:01:12;11.60;99.90
18126;DHT22;53956;52.442;13.284;2022-12-29T06:03:39;11.70;99.90
18126;DHT22;53956;52.442;13.284;2022-12-29T06:06:06;11.60;99.90
18126;DHT22;53956;52.442;13.284;2022-12-29T06:08:33;11.70;99.90
18126;DHT22;53956;52.442;13.284;2022-12-29T06:11:00;11.60;99.90
18126;DHT22;53956;52.442;13.284;2022-12-29T06:13:26;11.70;99.90
18126;DHT22;53956;52.442;13.284;2022-12-29T06:15:56;11.70;99.90
18126;DHT22;53956;52.442;13.284;2022-12-29T06:18:25;11.80;99.90
18126;DHT22;53956;52.442;13.284;2022-12-29T06:20:52;11.60;99.90
18126;DHT22;53956;52.442;13.284;2022-12-29T06:23:18;11.70;99.90
18126;DHT22;53956;52.442;13.284;2022-12-29T06:25:47;11.70;99.90
18126;DHT22;53956;52.442;13.284;2022-12-29T06:28:14;11.70;99.90
18126;DHT22;53956;52.442;13.284;2022-12-29T06:30:43;11.70;99.90
18126;DHT22;53956;52.442;13.284;2022-12-29T06:33:11;11.70;99.90
18126;DHT22;53956;52.442;13.284;2022-12-29T06:35:37;11.80;99.90
18126;DHT22;53956;52.442;13.284;2022-12-29T06:38:04;11.70;99.90
18126;DHT22;53956;52.442;13.284;2022-12-29T06:40:31;11.70;99.90
18126;DHT22;53956;52.442;13.284;2022-12-29T06:43:14;11.80;99.90
18126;DHT22;53956;52.442;13.284;2022-12-29T06:45:41;11.80;99.90
18126;DHT22;53956;52.442;13.284;2022-12-29T06:48:07;11.90;99.90
18126;DHT22;53956;52.442;13.284;2022-12-29T06:50:35;11.80;99.90
18126;DHT22;53956;52.442;13.284;2022-12-29T06:53:02;11.90;99.90
18126;DHT22;53956;52.442;13.284;2022-12-29T06:55:29;11.80;99.90
18126;DHT22;53956;52.442;13.284;2022-12-29T06:57:56;11.70;99.90
18126;DHT22;53956;52.442;13.284;2022-12-29T07:00:23;11.80;99.90
18126;DHT22;53956;52.442;13.284;2022-12-29T07:02:50;11.70;99.90
18126;DHT22;53956;52.442;13.284;2022-12-29T07:05:18;11.70;99.90
18126;DHT22;53956;52.442;13.284;2022-12-29T07:07:45;11.70;99.90
18126;DHT22;53956;52.442;13.284;2022-12-29T07:10:12;11.70;99.90
18126;DHT22;53956;52.442;13.284;2022-12-29T07:12:39;11.60;99.90
18126;DHT22;53956;52.442;13.284;2022-12-29T07:15:06;11.60;99.90
18126;DHT22;53956;52.442;13.284;2022-12-29T07:17:33;11.60;99.90
18126;DHT22;53956;52.442;13.284;2022-12-29T07:20:00;11.60;99.90
18126;DHT22;53956;52.442;13.284;2022-12-29T07:22:26;11.70;99.90
18126;DHT22;53956;52.442;13.284;2022-12-29T07:24:54;11.70;99.90
18126;DHT22;53956;52.442;13.284;2022-12-29T07:27:21;11.60;99.90
18126;DHT22;53956;52.442;13.284;2022-12-29T07:29:48;11.70;99.90
18126;DHT22;53956;52.442;13.284;2022-12-29T07:32:14;11.80;99.90
18126;DHT22;53956;52.442;13.284;2022-12-29T07:34:41;11.60;99.90
18126;DHT22;53956;52.442;13.284;2022-12-29T07:37:10;11.60;99.90
18126;DHT22;53956;52.442;13.284;2022-12-29T07:39:37;11.60;99.90
18126;DHT22;53956;52.442;13.284;2022-12-29T07:42:05;11.60;99.90
18126;DHT22;53956;52.442;13.284;2022-12-29T07:44:40;11.70;99.90
18126;DHT22;53956;52.442;13.284;2022-12-29T07:47:26;11.70;99.90
18126;DHT22;53956;52.442;13.284;2022-12-29T07:49:52;11.70;99.90
18126;DHT22;53956;52.442;13.284;2022-12-29T07:52:19;11.80;99.90
18126;DHT22;53956;52.442;13.284;2022-12-29T07:54:45;11.80;99.90
18126;DHT22;53956;52.442;13.284;2022-12-29T07:57:13;11.80;99.90
18126;DHT22;53956;52.442;13.284;2022-12-29T07:59:40;12.00;99.90
18126;DHT22;53956;52.442;13.284;2022-12-29T08:02:09;11.70;99.90
18126;DHT22;53956;52.442;13.284;2022-12-29T08:04:36;11.90;99.90
18126;DHT22;53956;52.442;13.284;2022-12-29T08:07:02;11.90;99.90
18126;DHT22;53956;52.442;13.284;2022-12-29T08:09:29;11.80;99.90
18126;DHT22;53956;52.442;13.284;2022-12-29T08:11:55;11.90;99.90
18126;DHT22;53956;52.442;13.284;2022-12-29T08:14:23;12.00;99.90
18126;DHT22;53956;52.442;13.284;2022-12-29T08:16:50;11.90;99.90
18126;DHT22;53956;52.442;13.284;2022-12-29T08:19:16;11.90;99.90
18126;DHT22;53956;52.442;13.284;2022-12-29T08:21:43;12.10;99.90
18126;DHT22;53956;52.442;13.284;2022-12-29T08:24:10;12.00;99.90
18126;DHT22;53956;52.442;13.284;2022-12-29T08:26:37;12.00;99.90
18126;DHT22;53956;52.442;13.284;2022-12-29T08:29:03;12.00;99.90
18126;DHT22;53956;52.442;13.284;2022-12-29T08:31:31;12.00;99.90
18126;DHT22;53956;52.442;13.284;2022-12-29T08:33:58;12.00;99.90
18126;DHT22;53956;52.442;13.284;2022-12-29T08:36:26;12.10;99.90
18126;DHT22;53956;52.442;13.284;2022-12-29T08:38:53;12.00;99.90
18126;DHT22;53956;52.442;13.284;2022-12-29T08:41:20;12.10;99.90
18126;DHT22;53956;52.442;13.284;2022-12-29T08:43:47;12.00;99.90
18126;DHT22;53956;52.442;13.284;2022-12-29T08:46:14;12.00;99.90
18126;DHT22;53956;52.442;13.284;2022-12-29T08:48:43;12.20;99.90
18126;DHT22;53956;52.442;13.284;2022-12-29T08:51:10;12.20;99.90
18126;DHT22;53956;52.442;13.284;2022-12-29T08:53:36;12.10;99.90
18126;DHT22;53956;52.442;13.284;2022-12-29T08:56:04;12.10;99.90
18126;DHT22;53956;52.442;13.284;2022-12-29T08:58:35;12.20;99.90
18126;DHT22;53956;52.442;13.284;2022-12-29T09:01:02;12.30;99.90
18126;DHT22;53956;52.442;13.284;2022-12-29T09:03:29;12.20;99.90
18126;DHT22;53956;52.442;13.284;2022-12-29T09:05:57;12.40;99.90
18126;DHT22;53956;52.442;13.284;2022-12-29T09:08:24;12.20;99.90
18126;DHT22;53956;52.442;13.284;2022-12-29T09:10:50;12.40;99.90
18126;DHT22;53956;52.442;13.284;2022-12-29T09:13:17;12.40;99.90
18126;DHT22;53956;52.442;13.284;2022-12-29T09:15:45;12.40;99.90
18126;DHT22;53956;52.442;13.284;2022-12-29T09:18:12;12.40;99.90
18126;DHT22;53956;52.442;13.284;2022-12-29T09:20:38;12.40;99.90
18126;DHT22;53956;52.442;13.284;2022-12-29T09:23:06;12.50;99.90
18126;DHT22;53956;52.442;13.284;2022-12-29T09:25:33;12.60;99.90
18126;DHT22;53956;52.442;13.284;2022-12-29T09:28:00;12.70;99.90
18126;DHT22;53956;52.442;13.284;2022-12-29T09:30:31;12.60;99.90
18126;DHT22;53956;52.442;13.284;2022-12-29T09:32:57;12.70;99.90
18126;DHT22;53956;52.442;13.284;2022-12-29T09:35:24;12.70;99.90
18126;DHT22;53956;52.442;13.284;2022-12-29T09:37:51;12.80;99.90
18126;DHT22;53956;52.442;13.284;2022-12-29T09:40:26;12.70;99.90
18126;DHT22;53956;52.442;13.284;2022-12-29T09:43:09;12.70;99.90
18126;DHT22;53956;52.442;13.284;2022-12-29T09:45:41;12.70;99.90
18126;DHT22;53956;52.442;13.284;2022-12-29T09:48:14;12.70;99.90
18126;DHT22;53956;52.442;13.284;2022-12-29T09:50:44;12.80;99.90
18126;DHT22;53956;52.442;13.284;2022-12-29T09:53:17;12.80;99.90
18126;DHT22;53956;52.442;13.284;2022-12-29T09:55:51;12.90;99.90
18126;DHT22;53956;52.442;13.284;2022-12-29T09:58:23;12.90;99.90
18126;DHT22;53956;52.442;13.284;2022-12-29T10:00:56;13.00;99.90
18126;DHT22;53956;52.442;13.284;2022-12-29T10:03:31;13.00;99.90
18126;DHT22;53956;52.442;13.284;2022-12-29T10:06:06;12.90;99.90
18126;DHT22;53956;52.442;13.284;2022-12-29T10:08:39;13.00;99.90
18126;DHT22;53956;52.442;13.284;2022-12-29T10:11:16;13.00;99.90
18126;DHT22;53956;52.442;13.284;2022-12-29T10:14:01;13.00;99.90
18126;DHT22;53956;52.442;13.284;2022-12-29T10:16:38;13.10;99.90
18126;DHT22;53956;52.442;13.284;2022-12-29T10:19:27;13.10;99.90
18126;DHT22;53956;52.442;13.284;2022-12-29T10:22:04;13.20;99.90
18126;DHT22;53956;52.442;13.284;2022-12-29T10:24:34;13.20;99.90
18126;DHT22;53956;52.442;13.284;2022-12-29T10:27:09;13.30;99.90
18126;DHT22;53956;52.442;13.284;2022-12-29T10:29:38;13.30;99.90
18126;DHT22;53956;52.442;13.284;2022-12-29T10:32:17;13.40;99.90
18126;DHT22;53956;52.442;13.284;2022-12-29T10:34:51;13.40;99.90
18126;DHT22;53956;52.442;13.284;2022-12-29T10:37:29;13.30;99.90
18126;DHT22;53956;52.442;13.284;2022-12-29T10:39:58;13.40;99.90
18126;DHT22;53956;52.442;13.284;2022-12-29T10:42:28;13.40;99.90
18126;DHT22;53956;52.442;13.284;2022-12-29T10:44:56;13.40;99.90
18126;DHT22;53956;52.442;13.284;2022-12-29T10:47:28;13.40;99.90
18126;DHT22;53956;52.442;13.284;2022-12-29T10:49:55;13.50;99.90
18126;DHT22;53956;52.442;13.284;2022-12-29T10:52:25;13.40;99.90
18126;DHT22;53956;52.442;13.284;2022-12-29T10:54:54;13.40;99.90
18126;DHT22;53956;52.442;13.284;2022-12-29T10:57:28;13.40;99.90
18126;DHT22;53956;52.442;13.284;2022-12-29T10:59:57;13.40;99.90
18126;DHT22;53956;52.442;13.284;2022-12-29T11:05:32;13.50;99.90
18126;DHT22;53956;52.442;13.284;2022-12-29T11:08:04;13.50;99.90
18126;DHT22;53956;52.442;13.284;2022-12-29T11:10:35;13.40;99.90
18126;DHT22;53956;52.442;13.284;2022-12-29T11:13:12;13.40;99.90
18126;DHT22;53956;52.442;13.284;2022-12-29T11:15:41;13.40;99.90
18126;DHT22;53956;52.442;13.284;2022-12-29T11:18:19;13.40;99.90
18126;DHT22;53956;52.442;13.284;2022-12-29T11:20:46;13.30;99.90
18126;DHT22;53956;52.442;13.284;2022-12-29T11:23:23;13.30;99.90
18126;DHT22;53956;52.442;13.284;2022-12-29T11:26:06;13.40;99.90
18126;DHT22;53956;52.442;13.284;2022-12-29T11:28:34;13.30;99.90
18126;DHT22;53956;52.442;13.284;2022-12-29T11:31:02;13.40;99.90
18126;DHT22;53956;52.442;13.284;2022-12-29T11:33:30;13.40;99.90
18126;DHT22;53956;52.442;13.284;2022-12-29T11:35:58;13.30;99.90
18126;DHT22;53956;52.442;13.284;2022-12-29T11:38:31;13.30;99.90
18126;DHT22;53956;52.442;13.284;2022-12-29T11:40:59;13.20;99.90
18126;DHT22;53956;52.442;13.284;2022-12-29T11:43:30;13.20;99.90
18126;DHT22;53956;52.442;13.284;2022-12-29T11:46:01;13.10;99.90
18126;DHT22;53956;52.442;13.284;2022-12-29T11:48:31;13.10;99.90
18126;DHT22;53956;52.442;13.284;2022-12-29T11:50:59;13.10;99.90
18126;DHT22;53956;52.442;13.284;2022-12-29T11:53:30;13.10;99.90
18126;DHT22;53956;52.442;13.284;2022-12-29T11:56:02;13.20;99.90
18126;DHT22;53956;52.442;13.284;2022-12-29T11:58:29;13.20;99.90
18126;DHT22;53956;52.442;13.284;2022-12-29T12:01:01;13.10;99.90
18126;DHT22;53956;52.442;13.284;2022-12-29T12:03:30;13.00;99.90
18126;DHT22;53956;52.442;13.284;2022-12-29T12:06:01;12.90;99.90
18126;DHT22;53956;52.442;13.284;2022-12-29T12:08:33;12.90;99.90
18126;DHT22;53956;52.442;13.284;2022-12-29T12:11:06;12.80;99.90
18126;DHT22;53956;52.442;13.284;2022-12-29T12:13:36;12.60;99.90
18126;DHT22;53956;52.442;13.284;2022-12-29T12:16:11;12.60;99.90
18126;DHT22;53956;52.442;13.284;2022-12-29T12:18:43;12.60;99.90
18126;DHT22;53956;52.442;13.284;2022-12-29T12:21:18;12.50;99.90
18126;DHT22;53956;52.442;13.284;2022-12-29T12:24:11;12.50;99.90
18126;DHT22;53956;52.442;13.284;2022-12-29T12:26:55;12.40;99.90
18126;DHT22;53956;52.442;13.284;2022-12-29T12:29:25;12.50;99.90
18126;DHT22;53956;52.442;13.284;2022-12-29T12:31:59;12.50;99.90
18126;DHT22;53956;52.442;13.284;2022-12-29T12:34:28;12.50;99.90
18126;DHT22;53956;52.442;13.284;2022-12-29T12:37:21;12.50;99.90
18126;DHT22;53956;52.442;13.284;2022-12-29T12:40:06;12.60;99.90
18126;DHT22;53956;52.442;13.284;2022-12-29T12:42:47;12.70;99.90
18126;DHT22;53956;52.442;13.284;2022-12-29T12:45:38;12.60;99.90
18126;DHT22;53956;52.442;13.284;2022-12-29T12:48:23;12.60;99.90
18126;DHT22;53956;52.442;13.284;2022-12-29T12:50:57;12.50;99.90
18126;DHT22;53956;52.442;13.284;2022-12-29T12:53:36;12.50;99.90
18126;DHT22;53956;52.442;13.284;2022-12-29T12:56:22;12.40;99.90
18126;DHT22;53956;52.442;13.284;2022-12-29T12:58:55;12.50;99.90
18126;DHT22;53956;52.442;13.284;2022-12-29T13:01:37;12.50;99.90
18126;DHT22;53956;52.442;13.284;2022-12-29T13:04:26;12.60;99.90
18126;DHT22;53956;52.442;13.284;2022-12-29T13:07:04;12.60;99.90
18126;DHT22;53956;52.442;13.284;2022-12-29T13:09:45;12.60;99.90
18126;DHT22;53956;52.442;13.284;2022-12-29T13:12:22;12.60;99.90
18126;DHT22;53956;52.442;13.284;2022-12-29T13:14:59;12.70;99.90
18126;DHT22;53956;52.442;13.284;2022-12-29T13:17:34;12.70;99.90
18126;DHT22;53956;52.442;13.284;2022-12-29T13:20:11;12.80;99.90
18126;DHT22;53956;52.442;13.284;2022-12-29T13:22:45;12.70;99.90
18126;DHT22;53956;52.442;13.284;2022-12-29T13:25:27;12.80;99.90
18126;DHT22;53956;52.442;13.284;2022-12-29T13:28:00;12.70;99.90
18126;DHT22;53956;52.442;13.284;2022-12-29T13:30:34;12.70;99.90
18126;DHT22;53956;52.442;13.284;2022-12-29T13:33:10;12.60;99.90
18126;DHT22;53956;52.442;13.284;2022-12-29T13:35:52;12.80;99.90
18126;DHT22;53956;52.442;13.284;2022-12-29T13:38:24;12.70;99.90
18126;DHT22;53956;52.442;13.284;2022-12-29T13:40:55;12.60;99.90
18126;DHT22;53956;52.442;13.284;2022-12-29T13:43:23;12.70;99.90
18126;DHT22;53956;52.442;13.284;2022-12-29T13:45:58;12.70;99.90
18126;DHT22;53956;52.442;13.284;2022-12-29T13:48:33;12.70;99.90
18126;DHT22;53956;52.442;13.284;2022-12-29T13:51:03;12.70;99.90
18126;DHT22;53956;52.442;13.284;2022-12-29T13:53:35;12.80;99.90
18126;DHT22;53956;52.442;13.284;2022-12-29T13:56:07;12.80;99.90
18126;DHT22;53956;52.442;13.284;2022-12-29T13:58:42;12.70;99.90
18126;DHT22;53956;52.442;13.284;2022-12-29T14:01:15;12.60;99.90
18126;DHT22;53956;52.442;13.284;2022-12-29T14:03:47;12.70;99.90
18126;DHT22;53956;52.442;13.284;2022-12-29T14:06:21;12.70;99.90
18126;DHT22;53956;52.442;13.284;2022-12-29T14:08:50;12.50;99.90
18126;DHT22;53956;52.442;13.284;2022-12-29T14:11:22;12.60;99.90
18126;DHT22;53956;52.442;13.284;2022-12-29T14:13:50;12.50;99.90
18126;DHT22;53956;52.442;13.284;2022-12-29T14:16:29;12.30;99.90
18126;DHT22;53956;52.442;13.284;2022-12-29T14:19:03;12.40;99.90
18126;DHT22;53956;52.442;13.284;2022-12-29T14:21:32;12.30;99.90
18126;DHT22;53956;52.442;13.284;2022-12-29T14:24:28;12.40;99.90
18126;DHT22;53956;52.442;13.284;2022-12-29T14:30:50;12.50;99.90
18126;DHT22;53956;52.442;13.284;2022-12-29T14:33:17;12.50;99.90
18126;DHT22;53956;52.442;13.284;2022-12-29T14:35:46;12.40;99.90
18126;DHT22;53956;52.442;13.284;2022-12-29T14:38:18;12.40;99.90
18126;DHT22;53956;52.442;13.284;2022-12-29T14:40:46;12.50;99.90
18126;DHT22;53956;52.442;13.284;2022-12-29T14:43:18;12.50;99.90
18126;DHT22;53956;52.442;13.284;2022-12-29T14:45:54;12.60;99.90
18126;DHT22;53956;52.442;13.284;2022-12-29T14:48:45;12.60;99.90
18126;DHT22;53956;52.442;13.284;2022-12-29T14:51:25;12.60;99.90
18126;DHT22;53956;52.442;13.284;2022-12-29T14:53:53;12.50;99.90
18126;DHT22;53956;52.442;13.284;2022-12-29T14:56:25;12.40;99.90
18126;DHT22;53956;52.442;13.284;2022-12-29T14:58:54;12.60;99.90
18126;DHT22;53956;52.442;13.284;2022-12-29T15:01:37;12.60;99.90
18126;DHT22;53956;52.442;13.284;2022-12-29T15:04:13;12.50;99.90
18126;DHT22;53956;52.442;13.284;2022-12-29T15:06:41;12.50;99.90
18126;DHT22;53956;52.442;13.284;2022-12-29T15:09:16;12.50;99.90
18126;DHT22;53956;52.442;13.284;2022-12-29T15:11:48;12.50;99.90
18126;DHT22;53956;52.442;13.284;2022-12-29T15:14:29;12.60;99.90
18126;DHT22;53956;52.442;13.284;2022-12-29T15:16:57;12.60;99.90
18126;DHT22;53956;52.442;13.284;2022-12-29T15:19:26;12.50;99.90
18126;DHT22;53956;52.442;13.284;2022-12-29T15:21:53;12.60;99.90
18126;DHT22;53956;52.442;13.284;2022-12-29T15:24:20;12.50;99.90
18126;DHT22;53956;52.442;13.284;2022-12-29T15:26:49;12.60;99.90
18126;DHT22;53956;52.442;13.284;2022-12-29T15:29:32;12.60;99.90
18126;DHT22;53956;52.442;13.284;2022-12-29T15:32:01;12.60;99.90
18126;DHT22;53956;52.442;13.284;2022-12-29T15:34:36;12.60;99.90
18126;DHT22;53956;52.442;13.284;2022-12-29T15:37:06;12.50;99.90
18126;DHT22;53956;52.442;13.284;2022-12-29T15:39:33;12.50;99.90
18126;DHT22;53956;52.442;13.284;2022-12-29T15:42:05;12.40;99.90
18126;DHT22;53956;52.442;13.284;2022-12-29T15:44:39;12.50;99.90
18126;DHT22;53956;52.442;13.284;2022-12-29T15:47:20;12.60;99.90
18126;DHT22;53956;52.442;13.284;2022-12-29T15:49:49;12.50;99.90
18126;DHT22;53956;52.442;13.284;2022-12-29T15:52:18;12.40;99.90